logo
Search for airport 
image banner adimage banner adimage banner ad
image banner ad

EDJOH - Fulda-Johannisau

Located in , Germany

ICAO - , IATA -

Data provided by Airmate  

General information

Coordinates: N50°32'12" E9°39'42"
Elevation is 816 feet MSL.
 
View others Airports in Hesse

Operational data

Special qualification required
Current time UTC:
Current local time:
Weather at : ETHF - Fritzlar ( 69 km )
METAR: ETHF 290020Z 26001KT 0050 FG FEW240 SCT390 11/11 Q1018 RED
TAF: TAF ETHF 281922Z 2820/2905 VRB03KT 9999 NSW SCT030 BKN240
View NOTAMs / SUP AIP / TFR affecting this airport [VIEW]
Communications frequencies: [VIEW]

Runways:

RWY identifierQFULength (ft)Width (ft)SurfaceLDA (ft)
0561°1640131GRASS
23241°1640131GRASS

Airport contact information

Address: Germany

Satellite view of EDJOH